sensor_id;sensor_type;location;lat;lon;timestamp;temperature;humidity
59923;DHT22;45778;51.142;3.732;2023-03-21T00:02:16;10.40;99.90
59923;DHT22;45778;51.142;3.732;2023-03-21T00:04:42;10.50;99.90
59923;DHT22;45778;51.142;3.732;2023-03-21T00:07:08;10.50;99.90
59923;DHT22;45778;51.142;3.732;2023-03-21T00:09:34;10.60;99.90
59923;DHT22;45778;51.142;3.732;2023-03-21T00:11:59;10.60;99.90
59923;DHT22;45778;51.142;3.732;2023-03-21T00:14:27;10.70;99.90
59923;DHT22;45778;51.142;3.732;2023-03-21T00:16:55;10.70;99.90
59923;DHT22;45778;51.142;3.732;2023-03-21T00:19:21;10.70;99.90
59923;DHT22;45778;51.142;3.732;2023-03-21T00:21:50;10.80;99.90
59923;DHT22;45778;51.142;3.732;2023-03-21T00:24:17;10.80;99.90
59923;DHT22;45778;51.142;3.732;2023-03-21T00:26:43;10.70;99.90
59923;DHT22;45778;51.142;3.732;2023-03-21T00:29:08;10.70;99.90
59923;DHT22;45778;51.142;3.732;2023-03-21T00:31:34;10.70;99.90
59923;DHT22;45778;51.142;3.732;2023-03-21T00:34:00;10.50;99.90
59923;DHT22;45778;51.142;3.732;2023-03-21T00:36:26;10.50;99.90
59923;DHT22;45778;51.142;3.732;2023-03-21T00:38:52;10.50;99.90
59923;DHT22;45778;51.142;3.732;2023-03-21T00:41:18;10.50;99.90
59923;DHT22;45778;51.142;3.732;2023-03-21T00:43:44;10.60;99.90
59923;DHT22;45778;51.142;3.732;2023-03-21T00:46:10;10.60;99.90
59923;DHT22;45778;51.142;3.732;2023-03-21T00:48:36;10.60;99.90
59923;DHT22;45778;51.142;3.732;2023-03-21T00:51:09;10.60;99.90
59923;DHT22;45778;51.142;3.732;2023-03-21T00:53:36;10.60;99.90
59923;DHT22;45778;51.142;3.732;2023-03-21T00:56:02;10.50;99.90
59923;DHT22;45778;51.142;3.732;2023-03-21T00:58:28;10.50;99.90
59923;DHT22;45778;51.142;3.732;2023-03-21T01:00:53;10.60;99.90
59923;DHT22;45778;51.142;3.732;2023-03-21T01:03:19;10.60;99.90
59923;DHT22;45778;51.142;3.732;2023-03-21T01:05:47;10.60;99.90
59923;DHT22;45778;51.142;3.732;2023-03-21T01:08:37;10.60;99.90
59923;DHT22;45778;51.142;3.732;2023-03-21T01:11:05;10.60;99.90
59923;DHT22;45778;51.142;3.732;2023-03-21T01:13:32;10.60;99.90
59923;DHT22;45778;51.142;3.732;2023-03-21T01:15:58;10.60;99.90
59923;DHT22;45778;51.142;3.732;2023-03-21T01:18:27;10.70;99.90
59923;DHT22;45778;51.142;3.732;2023-03-21T01:20:55;10.70;99.90
59923;DHT22;45778;51.142;3.732;2023-03-21T01:23:22;10.60;99.90
59923;DHT22;45778;51.142;3.732;2023-03-21T01:25:49;10.60;99.90
59923;DHT22;45778;51.142;3.732;2023-03-21T01:28:15;10.70;99.90
59923;DHT22;45778;51.142;3.732;2023-03-21T01:30:49;10.70;99.90
59923;DHT22;45778;51.142;3.732;2023-03-21T01:33:16;10.60;99.90
59923;DHT22;45778;51.142;3.732;2023-03-21T01:35:42;10.40;99.90
59923;DHT22;45778;51.142;3.732;2023-03-21T01:38:08;10.50;99.90
59923;DHT22;45778;51.142;3.732;2023-03-21T01:40:35;10.50;99.90
59923;DHT22;45778;51.142;3.732;2023-03-21T01:43:01;10.50;99.90
59923;DHT22;45778;51.142;3.732;2023-03-21T01:48:25;10.60;99.90
59923;DHT22;45778;51.142;3.732;2023-03-21T01:50:51;10.60;99.90
59923;DHT22;45778;51.142;3.732;2023-03-21T01:53:23;10.80;99.90
59923;DHT22;45778;51.142;3.732;2023-03-21T01:55:53;10.70;99.90
59923;DHT22;45778;51.142;3.732;2023-03-21T01:58:18;10.80;99.90
59923;DHT22;45778;51.142;3.732;2023-03-21T02:00:46;10.80;99.90
59923;DHT22;45778;51.142;3.732;2023-03-21T02:03:14;10.80;99.90
59923;DHT22;45778;51.142;3.732;2023-03-21T02:05:58;10.70;99.90
59923;DHT22;45778;51.142;3.732;2023-03-21T02:08:31;10.60;99.90
59923;DHT22;45778;51.142;3.732;2023-03-21T02:10:57;10.70;99.90
59923;DHT22;45778;51.142;3.732;2023-03-21T02:13:22;10.70;99.90
59923;DHT22;45778;51.142;3.732;2023-03-21T02:18:44;10.70;99.90
59923;DHT22;45778;51.142;3.732;2023-03-21T02:37:22;11.00;99.90
59923;DHT22;45778;51.142;3.732;2023-03-21T02:45:16;11.00;99.90
59923;DHT22;45778;51.142;3.732;2023-03-21T02:47:59;11.10;99.90
59923;DHT22;45778;51.142;3.732;2023-03-21T02:50:52;10.80;99.90
59923;DHT22;45778;51.142;3.732;2023-03-21T02:53:20;10.80;99.90
59923;DHT22;45778;51.142;3.732;2023-03-21T02:55:48;10.80;99.90
59923;DHT22;45778;51.142;3.732;2023-03-21T02:58:20;10.80;99.90
59923;DHT22;45778;51.142;3.732;2023-03-21T03:00:48;10.70;99.90
59923;DHT22;45778;51.142;3.732;2023-03-21T03:03:14;10.70;99.90
59923;DHT22;45778;51.142;3.732;2023-03-21T03:05:47;10.60;99.90
59923;DHT22;45778;51.142;3.732;2023-03-21T03:11:03;10.70;99.90
59923;DHT22;45778;51.142;3.732;2023-03-21T03:16:40;10.50;99.90
59923;DHT22;45778;51.142;3.732;2023-03-21T03:19:16;10.50;99.90
59923;DHT22;45778;51.142;3.732;2023-03-21T03:21:54;10.50;99.90
59923;DHT22;45778;51.142;3.732;2023-03-21T03:24:23;10.70;99.90
59923;DHT22;45778;51.142;3.732;2023-03-21T03:29:23;10.70;99.90
59923;DHT22;45778;51.142;3.732;2023-03-21T03:32:01;10.90;99.90
59923;DHT22;45778;51.142;3.732;2023-03-21T03:34:37;10.80;99.90
59923;DHT22;45778;51.142;3.732;2023-03-21T03:37:08;10.90;99.90
59923;DHT22;45778;51.142;3.732;2023-03-21T03:39:40;10.90;99.90
59923;DHT22;45778;51.142;3.732;2023-03-21T03:42:14;11.00;99.90
59923;DHT22;45778;51.142;3.732;2023-03-21T03:44:42;10.90;99.90
59923;DHT22;45778;51.142;3.732;2023-03-21T03:47:11;11.00;99.90
59923;DHT22;45778;51.142;3.732;2023-03-21T03:49:42;10.90;99.90
59923;DHT22;45778;51.142;3.732;2023-03-21T03:52:20;10.80;99.90
59923;DHT22;45778;51.142;3.732;2023-03-21T03:54:48;10.80;99.90
59923;DHT22;45778;51.142;3.732;2023-03-21T03:57:16;10.70;99.90
59923;DHT22;45778;51.142;3.732;2023-03-21T03:59:44;10.70;99.90
59923;DHT22;45778;51.142;3.732;2023-03-21T04:02:10;10.80;99.90
59923;DHT22;45778;51.142;3.732;2023-03-21T04:04:36;10.80;99.90
59923;DHT22;45778;51.142;3.732;2023-03-21T04:07:02;10.80;99.90
59923;DHT22;45778;51.142;3.732;2023-03-21T04:09:29;10.70;99.90
59923;DHT22;45778;51.142;3.732;2023-03-21T04:11:55;10.70;99.90
59923;DHT22;45778;51.142;3.732;2023-03-21T04:14:22;10.70;99.90
59923;DHT22;45778;51.142;3.732;2023-03-21T04:16:47;10.70;99.90
59923;DHT22;45778;51.142;3.732;2023-03-21T04:19:14;10.70;99.90
59923;DHT22;45778;51.142;3.732;2023-03-21T04:21:40;10.80;99.90
59923;DHT22;45778;51.142;3.732;2023-03-21T04:24:06;10.80;99.90
59923;DHT22;45778;51.142;3.732;2023-03-21T04:26:33;10.80;99.90
59923;DHT22;45778;51.142;3.732;2023-03-21T04:29:00;10.70;99.90
59923;DHT22;45778;51.142;3.732;2023-03-21T04:31:28;10.70;99.90
59923;DHT22;45778;51.142;3.732;2023-03-21T04:34:00;10.80;99.90
59923;DHT22;45778;51.142;3.732;2023-03-21T04:36:27;10.80;99.90
59923;DHT22;45778;51.142;3.732;2023-03-21T04:39:06;10.80;99.90
59923;DHT22;45778;51.142;3.732;2023-03-21T04:41:38;10.80;99.90
59923;DHT22;45778;51.142;3.732;2023-03-21T04:44:05;10.70;99.90
59923;DHT22;45778;51.142;3.732;2023-03-21T04:46:30;10.70;99.90
59923;DHT22;45778;51.142;3.732;2023-03-21T04:48:57;10.50;99.90
59923;DHT22;45778;51.142;3.732;2023-03-21T04:51:23;10.40;99.90
59923;DHT22;45778;51.142;3.732;2023-03-21T04:53:49;10.20;99.90
59923;DHT22;45778;51.142;3.732;2023-03-21T04:56:17;10.20;99.90
59923;DHT22;45778;51.142;3.732;2023-03-21T04:58:43;10.00;99.90
59923;DHT22;45778;51.142;3.732;2023-03-21T05:01:09;9.90;99.90
59923;DHT22;45778;51.142;3.732;2023-03-21T05:03:38;9.80;99.90
59923;DHT22;45778;51.142;3.732;2023-03-21T05:06:08;9.80;99.90
59923;DHT22;45778;51.142;3.732;2023-03-21T05:08:35;9.70;99.90
59923;DHT22;45778;51.142;3.732;2023-03-21T05:11:02;9.60;99.90
59923;DHT22;45778;51.142;3.732;2023-03-21T05:13:27;9.60;99.90
59923;DHT22;45778;51.142;3.732;2023-03-21T05:15:53;9.50;99.90
59923;DHT22;45778;51.142;3.732;2023-03-21T05:18:19;9.50;99.90
59923;DHT22;45778;51.142;3.732;2023-03-21T05:20:51;9.60;99.90
59923;DHT22;45778;51.142;3.732;2023-03-21T05:23:21;9.50;99.90
59923;DHT22;45778;51.142;3.732;2023-03-21T05:25:47;9.50;99.90
59923;DHT22;45778;51.142;3.732;2023-03-21T05:28:13;9.40;99.90
59923;DHT22;45778;51.142;3.732;2023-03-21T05:30:43;9.40;99.90
59923;DHT22;45778;51.142;3.732;2023-03-21T05:33:09;9.40;99.90
59923;DHT22;45778;51.142;3.732;2023-03-21T05:35:35;9.40;99.90
59923;DHT22;45778;51.142;3.732;2023-03-21T05:38:00;9.50;99.90
59923;DHT22;45778;51.142;3.732;2023-03-21T05:40:26;9.50;99.90
59923;DHT22;45778;51.142;3.732;2023-03-21T05:42:51;9.40;99.90
59923;DHT22;45778;51.142;3.732;2023-03-21T05:45:17;9.50;99.90
59923;DHT22;45778;51.142;3.732;2023-03-21T05:47:43;9.60;99.90
59923;DHT22;45778;51.142;3.732;2023-03-21T05:50:10;9.60;99.90
59923;DHT22;45778;51.142;3.732;2023-03-21T05:52:36;9.60;99.90
59923;DHT22;45778;51.142;3.732;2023-03-21T05:55:02;9.70;99.90
59923;DHT22;45778;51.142;3.732;2023-03-21T05:57:28;9.90;99.90
59923;DHT22;45778;51.142;3.732;2023-03-21T05:59:54;9.90;99.90
59923;DHT22;45778;51.142;3.732;2023-03-21T06:02:19;9.80;99.90
59923;DHT22;45778;51.142;3.732;2023-03-21T06:04:45;9.80;99.90
59923;DHT22;45778;51.142;3.732;2023-03-21T06:07:11;9.80;99.90
59923;DHT22;45778;51.142;3.732;2023-03-21T06:09:36;9.90;99.90
59923;DHT22;45778;51.142;3.732;2023-03-21T06:12:02;9.80;99.90
59923;DHT22;45778;51.142;3.732;2023-03-21T06:14:28;9.80;99.90
59923;DHT22;45778;51.142;3.732;2023-03-21T06:16:54;9.80;99.90
59923;DHT22;45778;51.142;3.732;2023-03-21T06:19:19;9.80;99.90
59923;DHT22;45778;51.142;3.732;2023-03-21T06:21:46;9.90;99.90
59923;DHT22;45778;51.142;3.732;2023-03-21T06:24:12;9.90;99.90
59923;DHT22;45778;51.142;3.732;2023-03-21T06:26:38;10.00;99.90
59923;DHT22;45778;51.142;3.732;2023-03-21T06:29:06;10.00;99.90
59923;DHT22;45778;51.142;3.732;2023-03-21T06:31:32;10.00;99.90
59923;DHT22;45778;51.142;3.732;2023-03-21T06:33:58;10.20;99.90
59923;DHT22;45778;51.142;3.732;2023-03-21T06:36:24;10.30;99.90
59923;DHT22;45778;51.142;3.732;2023-03-21T06:38:49;10.40;99.90
59923;DHT22;45778;51.142;3.732;2023-03-21T06:41:16;10.40;99.90
59923;DHT22;45778;51.142;3.732;2023-03-21T06:43:42;10.30;99.90
59923;DHT22;45778;51.142;3.732;2023-03-21T06:46:08;10.30;99.90
59923;DHT22;45778;51.142;3.732;2023-03-21T06:48:34;10.40;99.90
59923;DHT22;45778;51.142;3.732;2023-03-21T06:50:59;10.30;99.90
59923;DHT22;45778;51.142;3.732;2023-03-21T06:53:25;10.30;99.90
59923;DHT22;45778;51.142;3.732;2023-03-21T06:55:55;10.30;99.90
59923;DHT22;45778;51.142;3.732;2023-03-21T06:58:21;10.30;99.90
59923;DHT22;45778;51.142;3.732;2023-03-21T07:00:47;10.30;99.90
59923;DHT22;45778;51.142;3.732;2023-03-21T07:03:15;10.40;99.90
59923;DHT22;45778;51.142;3.732;2023-03-21T07:05:41;10.30;99.90
59923;DHT22;45778;51.142;3.732;2023-03-21T07:08:08;10.40;99.90
59923;DHT22;45778;51.142;3.732;2023-03-21T07:10:43;10.40;99.90
59923;DHT22;45778;51.142;3.732;2023-03-21T07:13:09;10.50;99.90
59923;DHT22;45778;51.142;3.732;2023-03-21T07:15:35;10.50;99.90
59923;DHT22;45778;51.142;3.732;2023-03-21T07:18:06;10.60;99.90
59923;DHT22;45778;51.142;3.732;2023-03-21T07:20:32;10.60;99.90
59923;DHT22;45778;51.142;3.732;2023-03-21T07:22:58;10.50;99.90
59923;DHT22;45778;51.142;3.732;2023-03-21T07:25:25;10.50;99.90
59923;DHT22;45778;51.142;3.732;2023-03-21T07:27:51;10.60;99.90
59923;DHT22;45778;51.142;3.732;2023-03-21T07:30:17;10.70;99.90
59923;DHT22;45778;51.142;3.732;2023-03-21T07:32:43;10.70;99.90
59923;DHT22;45778;51.142;3.732;2023-03-21T07:35:11;10.80;99.90
59923;DHT22;45778;51.142;3.732;2023-03-21T07:37:39;10.90;99.90
59923;DHT22;45778;51.142;3.732;2023-03-21T07:40:05;10.90;99.90
59923;DHT22;45778;51.142;3.732;2023-03-21T07:42:35;10.90;99.90
59923;DHT22;45778;51.142;3.732;2023-03-21T07:45:01;11.00;99.90
59923;DHT22;45778;51.142;3.732;2023-03-21T07:47:27;11.00;99.90
59923;DHT22;45778;51.142;3.732;2023-03-21T07:49:54;11.20;99.90
59923;DHT22;45778;51.142;3.732;2023-03-21T07:52:19;11.10;99.90
59923;DHT22;45778;51.142;3.732;2023-03-21T07:54:45;11.20;99.90
59923;DHT22;45778;51.142;3.732;2023-03-21T07:57:11;11.10;99.90
59923;DHT22;45778;51.142;3.732;2023-03-21T07:59:36;11.20;99.90
59923;DHT22;45778;51.142;3.732;2023-03-21T08:02:02;11.30;99.90
59923;DHT22;45778;51.142;3.732;2023-03-21T08:04:28;11.40;99.90
59923;DHT22;45778;51.142;3.732;2023-03-21T08:06:54;11.50;99.90
59923;DHT22;45778;51.142;3.732;2023-03-21T08:09:19;11.40;99.90
59923;DHT22;45778;51.142;3.732;2023-03-21T08:11:45;11.40;99.90
59923;DHT22;45778;51.142;3.732;2023-03-21T08:14:11;11.50;99.90
59923;DHT22;45778;51.142;3.732;2023-03-21T08:16:36;11.50;99.90
59923;DHT22;45778;51.142;3.732;2023-03-21T08:19:02;11.70;99.90
59923;DHT22;45778;51.142;3.732;2023-03-21T08:21:28;11.90;99.90
59923;DHT22;45778;51.142;3.732;2023-03-21T08:23:53;12.00;99.90
59923;DHT22;45778;51.142;3.732;2023-03-21T08:26:19;11.90;99.90
59923;DHT22;45778;51.142;3.732;2023-03-21T08:28:45;12.00;99.90
59923;DHT22;45778;51.142;3.732;2023-03-21T08:31:12;12.00;99.90
59923;DHT22;45778;51.142;3.732;2023-03-21T08:33:38;12.00;99.90
59923;DHT22;45778;51.142;3.732;2023-03-21T08:36:05;12.00;99.90
59923;DHT22;45778;51.142;3.732;2023-03-21T08:38:31;12.20;99.90
59923;DHT22;45778;51.142;3.732;2023-03-21T08:41:01;12.30;99.90
59923;DHT22;45778;51.142;3.732;2023-03-21T08:43:27;12.40;99.90
59923;DHT22;45778;51.142;3.732;2023-03-21T08:45:54;12.40;99.90
59923;DHT22;45778;51.142;3.732;2023-03-21T08:48:20;12.30;99.90
59923;DHT22;45778;51.142;3.732;2023-03-21T08:50:45;12.30;99.90
59923;DHT22;45778;51.142;3.732;2023-03-21T08:53:11;12.20;99.90
59923;DHT22;45778;51.142;3.732;2023-03-21T08:55:37;12.30;99.90
59923;DHT22;45778;51.142;3.732;2023-03-21T08:58:03;12.30;99.90
59923;DHT22;45778;51.142;3.732;2023-03-21T09:00:29;12.30;99.90
59923;DHT22;45778;51.142;3.732;2023-03-21T09:02:55;12.20;99.90
59923;DHT22;45778;51.142;3.732;2023-03-21T09:05:23;12.20;99.90
59923;DHT22;45778;51.142;3.732;2023-03-21T09:07:51;12.20;99.90
59923;DHT22;45778;51.142;3.732;2023-03-21T09:10:22;12.10;99.90
59923;DHT22;45778;51.142;3.732;2023-03-21T09:12:53;12.20;99.90
59923;DHT22;45778;51.142;3.732;2023-03-21T09:15:19;12.10;99.90
59923;DHT22;45778;51.142;3.732;2023-03-21T09:17:46;12.10;99.90
59923;DHT22;45778;51.142;3.732;2023-03-21T09:20:15;12.10;99.90
59923;DHT22;45778;51.142;3.732;2023-03-21T09:22:49;12.10;99.90
59923;DHT22;45778;51.142;3.732;2023-03-21T09:25:16;12.10;99.90
59923;DHT22;45778;51.142;3.732;2023-03-21T09:27:44;12.20;99.90
59923;DHT22;45778;51.142;3.732;2023-03-21T09:30:15;12.40;99.90
59923;DHT22;45778;51.142;3.732;2023-03-21T09:32:42;12.40;99.90
59923;DHT22;45778;51.142;3.732;2023-03-21T09:35:17;12.40;99.90
59923;DHT22;45778;51.142;3.732;2023-03-21T09:37:44;12.50;99.90
59923;DHT22;45778;51.142;3.732;2023-03-21T09:47:59;12.80;99.90
59923;DHT22;45778;51.142;3.732;2023-03-21T09:55:35;12.80;99.90
59923;DHT22;45778;51.142;3.732;2023-03-21T10:03:47;12.90;99.90
59923;DHT22;45778;51.142;3.732;2023-03-21T10:06:15;12.90;99.90
59923;DHT22;45778;51.142;3.732;2023-03-21T10:08:45;13.10;99.90
59923;DHT22;45778;51.142;3.732;2023-03-21T10:11:16;12.90;99.90
59923;DHT22;45778;51.142;3.732;2023-03-21T10:14:10;13.00;99.90
59923;DHT22;45778;51.142;3.732;2023-03-21T10:16:40;13.00;99.90
59923;DHT22;45778;51.142;3.732;2023-03-21T10:19:15;12.80;99.90
59923;DHT22;45778;51.142;3.732;2023-03-21T10:21:43;12.50;99.90
59923;DHT22;45778;51.142;3.732;2023-03-21T10:24:20;12.40;99.90
59923;DHT22;45778;51.142;3.732;2023-03-21T10:26:48;12.30;99.90
59923;DHT22;45778;51.142;3.732;2023-03-21T10:29:16;12.30;99.90
59923;DHT22;45778;51.142;3.732;2023-03-21T10:31:44;12.20;99.90
59923;DHT22;45778;51.142;3.732;2023-03-21T10:34:30;12.20;99.90
59923;DHT22;45778;51.142;3.732;2023-03-21T10:36:58;12.30;99.90
59923;DHT22;45778;51.142;3.732;2023-03-21T10:39:32;12.30;99.90
59923;DHT22;45778;51.142;3.732;2023-03-21T10:41:58;12.30;99.90
59923;DHT22;45778;51.142;3.732;2023-03-21T10:44:30;12.60;99.90
59923;DHT22;45778;51.142;3.732;2023-03-21T10:46:58;12.80;99.90
59923;DHT22;45778;51.142;3.732;2023-03-21T10:49:29;13.10;99.90
59923;DHT22;45778;51.142;3.732;2023-03-21T10:52:02;13.20;99.90
59923;DHT22;45778;51.142;3.732;2023-03-21T10:54:31;13.20;99.90
59923;DHT22;45778;51.142;3.732;2023-03-21T10:56:59;13.20;99.90
59923;DHT22;45778;51.142;3.732;2023-03-21T10:59:32;13.30;99.90
59923;DHT22;45778;51.142;3.732;2023-03-21T11:02:02;13.30;99.90
59923;DHT22;45778;51.142;3.732;2023-03-21T11:04:29;13.30;99.90
59923;DHT22;45778;51.142;3.732;2023-03-21T11:06:57;13.20;99.90
59923;DHT22;45778;51.142;3.732;2023-03-21T11:09:56;13.30;99.90
59923;DHT22;45778;51.142;3.732;2023-03-21T11:12:36;13.20;99.90
59923;DHT22;45778;51.142;3.732;2023-03-21T11:15:28;13.20;99.90
59923;DHT22;45778;51.142;3.732;2023-03-21T11:17:54;13.20;99.90
59923;DHT22;45778;51.142;3.732;2023-03-21T11:20:20;13.40;99.90
59923;DHT22;45778;51.142;3.732;2023-03-21T11:22:47;13.70;99.90
59923;DHT22;45778;51.142;3.732;2023-03-21T11:25:35;13.90;99.90
59923;DHT22;45778;51.142;3.732;2023-03-21T11:28:10;14.00;99.90
59923;DHT22;45778;51.142;3.732;2023-03-21T11:30:36;13.80;99.90
59923;DHT22;45778;51.142;3.732;2023-03-21T11:33:05;13.70;99.90
59923;DHT22;45778;51.142;3.732;2023-03-21T11:35:37;13.50;99.90
59923;DHT22;45778;51.142;3.732;2023-03-21T11:38:04;13.40;99.90
59923;DHT22;45778;51.142;3.732;2023-03-21T11:40:35;13.40;99.90
59923;DHT22;45778;51.142;3.732;2023-03-21T11:43:03;13.30;99.90
59923;DHT22;45778;51.142;3.732;2023-03-21T11:45:33;13.50;99.90
59923;DHT22;45778;51.142;3.732;2023-03-21T11:48:02;13.60;99.90
59923;DHT22;45778;51.142;3.732;2023-03-21T11:50:40;13.60;99.90
59923;DHT22;45778;51.142;3.732;2023-03-21T11:59:00;14.50;99.90
59923;DHT22;45778;51.142;3.732;2023-03-21T12:13:03;14.00;99.90
59923;DHT22;45778;51.142;3.732;2023-03-21T12:15:38;14.00;99.90
59923;DHT22;45778;51.142;3.732;2023-03-21T12:21:00;14.20;99.90
59923;DHT22;45778;51.142;3.732;2023-03-21T12:24:03;14.10;99.90
59923;DHT22;45778;51.142;3.732;2023-03-21T12:26:37;13.80;99.90
59923;DHT22;45778;51.142;3.732;2023-03-21T12:29:20;13.50;99.90
59923;DHT22;45778;51.142;3.732;2023-03-21T12:32:05;13.50;99.90
59923;DHT22;45778;51.142;3.732;2023-03-21T12:40:38;13.60;99.90
59923;DHT22;45778;51.142;3.732;2023-03-21T12:45:50;13.40;99.90
59923;DHT22;45778;51.142;3.732;2023-03-21T12:51:07;13.20;99.90
59923;DHT22;45778;51.142;3.732;2023-03-21T12:56:58;13.20;99.90
59923;DHT22;45778;51.142;3.732;2023-03-21T13:01:55;13.20;99.90
59923;DHT22;45778;51.142;3.732;2023-03-21T13:06:58;13.10;99.90
59923;DHT22;45778;51.142;3.732;2023-03-21T13:09:34;13.20;99.90
59923;DHT22;45778;51.142;3.732;2023-03-21T13:12:31;13.10;99.90
59923;DHT22;45778;51.142;3.732;2023-03-21T13:15:05;13.00;99.90
59923;DHT22;45778;51.142;3.732;2023-03-21T13:17:43;13.10;99.90
59923;DHT22;45778;51.142;3.732;2023-03-21T13:20:28;13.00;99.90
59923;DHT22;45778;51.142;3.732;2023-03-21T13:22:57;12.90;99.90
59923;DHT22;45778;51.142;3.732;2023-03-21T13:25:24;12.90;99.90
59923;DHT22;45778;51.142;3.732;2023-03-21T13:28:00;12.80;99.90
59923;DHT22;45778;51.142;3.732;2023-03-21T13:30:27;12.60;99.90
59923;DHT22;45778;51.142;3.732;2023-03-21T13:33:04;12.60;99.90
59923;DHT22;45778;51.142;3.732;2023-03-21T13:35:39;12.60;99.90
59923;DHT22;45778;51.142;3.732;2023-03-21T13:40:50;12.50;99.90
59923;DHT22;45778;51.142;3.732;2023-03-21T13:46:42;12.40;99.90
59923;DHT22;45778;51.142;3.732;2023-03-21T13:54:20;12.20;99.90
59923;DHT22;45778;51.142;3.732;2023-03-21T13:56:47;12.10;99.90
59923;DHT22;45778;51.142;3.732;2023-03-21T14:02:21;12.10;99.90
59923;DHT22;45778;51.142;3.732;2023-03-21T14:05:04;12.20;99.90
59923;DHT22;45778;51.142;3.732;2023-03-21T14:07:42;12.30;99.90
59923;DHT22;45778;51.142;3.732;2023-03-21T14:10:41;12.30;99.90
59923;DHT22;45778;51.142;3.732;2023-03-21T14:13:10;12.30;99.90
59923;DHT22;45778;51.142;3.732;2023-03-21T14:15:44;12.40;99.90
59923;DHT22;45778;51.142;3.732;2023-03-21T14:18:19;12.50;99.90
59923;DHT22;45778;51.142;3.732;2023-03-21T14:20:52;12.60;99.90
59923;DHT22;45778;51.142;3.732;2023-03-21T14:23:18;12.50;99.90
59923;DHT22;45778;51.142;3.732;2023-03-21T14:25:46;12.50;99.90
59923;DHT22;45778;51.142;3.732;2023-03-21T14:28:20;12.40;99.90
59923;DHT22;45778;51.142;3.732;2023-03-21T14:30:56;12.40;99.90
59923;DHT22;45778;51.142;3.732;2023-03-21T14:33:31;12.40;99.90
59923;DHT22;45778;51.142;3.732;2023-03-21T14:35:59;12.40;99.90
59923;DHT22;45778;51.142;3.732;2023-03-21T14:38:32;12.50;99.90
59923;DHT22;45778;51.142;3.732;2023-03-21T14:40:58;12.50;99.90
59923;DHT22;45778;51.142;3.732;2023-03-21T14:43:25;12.70;99.90
59923;DHT22;45778;51.142;3.732;2023-03-21T14:45:56;12.80;99.90
59923;DHT22;45778;51.142;3.732;2023-03-21T14:48:29;12.90;99.90
59923;DHT22;45778;51.142;3.732;2023-03-21T14:51:00;13.50;99.90
59923;DHT22;45778;51.142;3.732;2023-03-21T14:53:30;14.10;99.90
59923;DHT22;45778;51.142;3.732;2023-03-21T14:56:01;14.40;99.90
59923;DHT22;45778;51.142;3.732;2023-03-21T14:58:29;14.20;99.90
59923;DHT22;45778;51.142;3.732;2023-03-21T15:01:01;14.00;99.90
59923;DHT22;45778;51.142;3.732;2023-03-21T15:03:28;13.80;99.90
59923;DHT22;45778;51.142;3.732;2023-03-21T15:05:55;13.70;99.90
59923;DHT22;45778;51.142;3.732;2023-03-21T15:08:23;13.60;99.90
59923;DHT22;45778;51.142;3.732;2023-03-21T15:10:59;13.50;99.90
59923;DHT22;45778;51.142;3.732;2023-03-21T15:13:32;13.30;99.90
59923;DHT22;45778;51.142;3.732;2023-03-21T15:15:59;13.30;99.90
59923;DHT22;45778;51.142;3.732;2023-03-21T15:18:30;13.30;99.90
59923;DHT22;45778;51.142;3.732;2023-03-21T15:21:04;13.40;99.90
59923;DHT22;45778;51.142;3.732;2023-03-21T15:23:40;13.60;99.90
59923;DHT22;45778;51.142;3.732;2023-03-21T15:26:11;13.80;99.90
59923;DHT22;45778;51.142;3.732;2023-03-21T15:28:37;14.10;99.90
59923;DHT22;45778;51.142;3.732;2023-03-21T15:31:04;14.30;99.90
59923;DHT22;45778;51.142;3.732;2023-03-21T15:33:30;14.30;99.90
59923;DHT22;45778;51.142;3.732;2023-03-21T15:35:58;15.00;99.90
59923;DHT22;45778;51.142;3.732;2023-03-21T15:38:28;15.50;99.90
59923;DHT22;45778;51.142;3.732;2023-03-21T15:43:53;15.00;99.90
59923;DHT22;45778;51.142;3.732;2023-03-21T15:52:02;14.80;99.90
59923;DHT22;45778;51.142;3.732;2023-03-21T15:54:50;14.50;99.90
59923;DHT22;45778;51.142;3.732;2023-03-21T15:57:25;14.20;99.90
59923;DHT22;45778;51.142;3.732;2023-03-21T16:02:38;13.80;99.90
59923;DHT22;45778;51.142;3.732;2023-03-21T16:05:32;13.60;99.90
59923;DHT22;45778;51.142;3.732;2023-03-21T16:08:26;13.60;99.90
59923;DHT22;45778;51.142;3.732;2023-03-21T16:10:51;13.80;99.90
59923;DHT22;45778;51.142;3.732;2023-03-21T16:13:17;13.90;99.90
59923;DHT22;45778;51.142;3.732;2023-03-21T16:15:43;13.90;99.90
59923;DHT22;45778;51.142;3.732;2023-03-21T16:18:13;13.90;99.90
59923;DHT22;45778;51.142;3.732;2023-03-21T16:20:41;14.00;99.90
59923;DHT22;45778;51.142;3.732;2023-03-21T16:23:12;14.00;99.90
59923;DHT22;45778;51.142;3.732;2023-03-21T16:25:38;14.00;99.90
59923;DHT22;45778;51.142;3.732;2023-03-21T16:28:13;13.80;99.90
59923;DHT22;45778;51.142;3.732;2023-03-21T16:30:40;13.80;99.90
59923;DHT22;45778;51.142;3.732;2023-03-21T16:33:08;13.80;99.90
59923;DHT22;45778;51.142;3.732;2023-03-21T16:35:34;13.60;99.90
59923;DHT22;45778;51.142;3.732;2023-03-21T16:38:00;13.50;99.90
59923;DHT22;45778;51.142;3.732;2023-03-21T16:40:34;13.50;99.90
59923;DHT22;45778;51.142;3.732;2023-03-21T16:42:59;13.30;99.90
59923;DHT22;45778;51.142;3.732;2023-03-21T16:45:25;13.20;99.90
59923;DHT22;45778;51.142;3.732;2023-03-21T16:47:53;13.20;99.90
59923;DHT22;45778;51.142;3.732;2023-03-21T16:50:45;13.20;99.90
59923;DHT22;45778;51.142;3.732;2023-03-21T16:53:11;13.20;99.90
59923;DHT22;45778;51.142;3.732;2023-03-21T16:55:37;13.10;99.90
59923;DHT22;45778;51.142;3.732;2023-03-21T16:58:03;13.00;99.90
59923;DHT22;45778;51.142;3.732;2023-03-21T17:00:29;12.90;99.90
59923;DHT22;45778;51.142;3.732;2023-03-21T17:02:59;12.80;99.90
59923;DHT22;45778;51.142;3.732;2023-03-21T17:05:27;12.70;99.90
59923;DHT22;45778;51.142;3.732;2023-03-21T17:07:55;12.70;99.90
59923;DHT22;45778;51.142;3.732;2023-03-21T17:10:24;12.60;99.90
59923;DHT22;45778;51.142;3.732;2023-03-21T17:12:50;12.50;99.90
59923;DHT22;45778;51.142;3.732;2023-03-21T17:15:16;12.40;99.90
59923;DHT22;45778;51.142;3.732;2023-03-21T17:17:43;12.40;99.90
59923;DHT22;45778;51.142;3.732;2023-03-21T17:20:29;12.90;99.90
59923;DHT22;45778;51.142;3.732;2023-03-21T17:22:55;13.70;99.90
59923;DHT22;45778;51.142;3.732;2023-03-21T17:25:21;14.30;99.90
59923;DHT22;45778;51.142;3.732;2023-03-21T17:27:47;14.50;99.90
59923;DHT22;45778;51.142;3.732;2023-03-21T17:30:20;14.30;99.90
59923;DHT22;45778;51.142;3.732;2023-03-21T17:32:48;14.20;99.90
59923;DHT22;45778;51.142;3.732;2023-03-21T17:35:15;14.00;99.90
59923;DHT22;45778;51.142;3.732;2023-03-21T17:37:41;13.60;99.90
59923;DHT22;45778;51.142;3.732;2023-03-21T17:40:10;13.20;99.90
59923;DHT22;45778;51.142;3.732;2023-03-21T17:42:36;13.00;99.90
59923;DHT22;45778;51.142;3.732;2023-03-21T17:45:02;12.90;99.90
59923;DHT22;45778;51.142;3.732;2023-03-21T17:47:28;12.80;99.90